createdAt,value
2023-06-19T00:01:17.868Z,9.60
2023-06-19T00:03:45.706Z,10.40
2023-06-19T00:06:13.828Z,7.97
2023-06-19T00:08:41.680Z,11.90
2023-06-19T00:11:09.840Z,8.85
2023-06-19T00:13:37.720Z,12.00
2023-06-19T00:16:05.893Z,9.02
2023-06-19T00:18:33.756Z,10.77
2023-06-19T00:21:01.851Z,9.73
2023-06-19T00:23:29.669Z,9.15
2023-06-19T00:25:57.753Z,12.35
2023-06-19T00:28:25.698Z,8.32
2023-06-19T00:30:53.842Z,9.25
2023-06-19T00:33:22.148Z,10.18
2023-06-19T00:35:53.242Z,8.70
2023-06-19T00:38:21.122Z,9.80
2023-06-19T00:40:49.314Z,14.50
2023-06-19T00:43:17.166Z,10.32
2023-06-19T00:45:45.298Z,11.77
2023-06-19T00:48:13.285Z,9.50
2023-06-19T00:50:41.404Z,10.45
2023-06-19T00:53:11.498Z,9.50
2023-06-19T00:55:39.685Z,9.63
2023-06-19T00:58:07.597Z,9.95
2023-06-19T01:00:35.725Z,9.00
2023-06-19T01:03:03.764Z,10.13
2023-06-19T01:05:32.172Z,9.40
2023-06-19T01:08:49.883Z,10.32
2023-06-19T01:11:26.468Z,9.85
2023-06-19T01:14:09.697Z,9.77
2023-06-19T01:16:38.661Z,10.35
2023-06-19T01:19:11.275Z,11.15
2023-06-19T01:21:39.470Z,10.93
2023-06-19T01:24:07.354Z,9.82
2023-06-19T01:26:35.854Z,9.77
2023-06-19T01:29:04.227Z,9.70
2023-06-19T01:31:37.929Z,10.35
2023-06-19T01:34:08.732Z,10.55
2023-06-19T01:36:37.313Z,11.43
2023-06-19T01:39:06.569Z,8.02
2023-06-19T01:41:35.324Z,10.90
2023-06-19T01:44:03.789Z,11.50
2023-06-19T01:46:32.034Z,10.45
2023-06-19T01:48:59.948Z,11.52
2023-06-19T01:51:28.057Z,14.30
2023-06-19T01:53:56.770Z,13.50
2023-06-19T01:56:24.922Z,11.32
2023-06-19T01:58:52.784Z,11.98
2023-06-19T02:01:20.911Z,10.25
2023-06-19T02:03:48.822Z,12.05
2023-06-19T02:06:17.137Z,9.32
2023-06-19T02:08:45.136Z,11.93
2023-06-19T02:11:13.300Z,10.70
2023-06-19T02:13:41.374Z,12.25
2023-06-19T02:16:09.536Z,11.30
2023-06-19T02:18:37.452Z,11.80
2023-06-19T02:21:05.623Z,10.88
2023-06-19T02:23:33.490Z,13.77
2023-06-19T02:26:01.698Z,11.85
2023-06-19T02:28:29.550Z,14.93
2023-06-19T02:30:57.893Z,12.05
2023-06-19T02:33:25.810Z,13.15
2023-06-19T02:35:53.920Z,12.25
2023-06-19T02:38:21.739Z,12.75
2023-06-19T02:40:49.846Z,10.38
2023-06-19T02:43:17.733Z,12.40
2023-06-19T02:45:45.884Z,13.07
2023-06-19T02:48:13.732Z,12.02
2023-06-19T02:50:41.876Z,13.25
2023-06-19T02:53:09.793Z,11.52
2023-06-19T02:55:37.999Z,10.95
2023-06-19T02:58:05.869Z,13.05
2023-06-19T03:00:55.654Z,14.65
2023-06-19T03:03:23.601Z,12.05
2023-06-19T03:05:52.038Z,15.32
2023-06-19T03:08:19.880Z,15.82
2023-06-19T03:10:48.046Z,14.75
2023-06-19T03:13:15.954Z,12.60
2023-06-19T03:15:44.213Z,13.55
2023-06-19T03:18:12.139Z,17.35
2023-06-19T03:20:40.369Z,13.98
2023-06-19T03:23:08.329Z,13.40
2023-06-19T03:25:37.540Z,16.35
2023-06-19T03:28:05.434Z,12.23
2023-06-19T03:30:33.556Z,13.93
2023-06-19T03:33:01.408Z,16.23
2023-06-19T03:35:29.569Z,14.02
2023-06-19T03:37:57.407Z,12.60
2023-06-19T03:40:25.732Z,13.13
2023-06-19T03:42:53.781Z,12.73
2023-06-19T03:45:21.922Z,13.15
2023-06-19T03:47:49.786Z,13.32
2023-06-19T03:50:21.420Z,13.48
2023-06-19T03:52:49.096Z,14.50
2023-06-19T03:55:16.726Z,13.30
2023-06-19T05:04:26.179Z,15.98
2023-06-19T05:06:53.486Z,16.17
2023-06-19T05:09:21.165Z,13.35
2023-06-19T06:18:28.402Z,10.05
2023-06-19T06:20:55.724Z,9.43
2023-06-19T09:55:05.074Z,5.20
2023-06-19T09:57:35.988Z,4.20
